createdAt,value
2019-04-06T00:02:12.369Z,25.10
2019-04-06T00:04:39.866Z,25.80
2019-04-06T00:07:07.196Z,29.63
2019-04-06T00:09:34.511Z,26.03
2019-04-06T00:12:01.783Z,28.50
2019-04-06T00:14:29.029Z,25.23
2019-04-06T00:16:56.311Z,27.03
2019-04-06T00:19:23.819Z,26.33
2019-04-06T00:21:51.099Z,27.63
2019-04-06T00:24:18.353Z,27.10
2019-04-06T00:26:45.629Z,27.23
2019-04-06T00:29:12.958Z,26.20
2019-04-06T00:31:41.866Z,26.30
2019-04-06T00:34:09.391Z,25.50
2019-04-06T00:36:36.657Z,26.00
2019-04-06T00:39:05.481Z,26.40
2019-04-06T00:41:32.760Z,27.27
2019-04-06T00:44:00.015Z,26.27
2019-04-06T00:46:27.277Z,26.60
2019-04-06T00:48:54.789Z,27.13
2019-04-06T00:51:22.250Z,28.43
2019-04-06T00:53:49.489Z,27.97
2019-04-06T00:56:16.761Z,26.57
2019-04-06T00:58:44.006Z,28.57
2019-04-06T01:01:11.550Z,26.10
2019-04-06T01:03:39.066Z,29.87
2019-04-06T01:06:06.576Z,27.97
2019-04-06T01:08:33.847Z,24.97
2019-04-06T01:11:01.182Z,24.70
2019-04-06T01:13:28.490Z,24.53
2019-04-06T01:15:55.773Z,27.73
2019-04-06T01:18:23.058Z,25.30
2019-04-06T01:20:50.380Z,25.53
2019-04-06T01:23:17.962Z,25.57
2019-04-06T01:25:45.266Z,28.90
2019-04-06T01:28:12.572Z,26.73
2019-04-06T01:30:39.819Z,28.90
2019-04-06T01:33:07.351Z,27.10
2019-04-06T01:35:34.603Z,26.43
2019-04-06T01:38:01.874Z,28.57
2019-04-06T01:40:29.126Z,25.07
2019-04-06T01:42:56.393Z,27.17
2019-04-06T01:45:23.650Z,27.60
2019-04-06T01:47:50.917Z,22.03
2019-04-06T01:50:18.432Z,23.17
2019-04-06T01:52:45.949Z,23.17
2019-04-06T01:55:13.198Z,24.30
2019-04-06T01:57:40.453Z,25.03
2019-04-06T02:00:09.563Z,25.10
2019-04-06T02:02:41.371Z,26.50
2019-04-06T02:05:09.057Z,24.00
2019-04-06T02:07:36.561Z,25.40
2019-04-06T02:10:05.206Z,21.87
2019-04-06T02:12:32.458Z,21.77
2019-04-06T02:14:59.727Z,25.30
2019-04-06T02:17:27.243Z,22.00
2019-04-06T02:19:54.510Z,23.93
2019-04-06T02:22:21.766Z,19.07
2019-04-06T02:24:49.033Z,23.90
2019-04-06T02:27:16.294Z,23.50
2019-04-06T02:29:43.934Z,25.10
2019-04-06T02:32:12.820Z,26.57
2019-04-06T02:34:41.731Z,26.17
2019-04-06T02:37:22.679Z,27.50
2019-04-06T02:40:00.545Z,25.87
2019-04-06T02:42:45.452Z,27.30
2019-04-06T02:45:12.785Z,26.60
2019-04-06T02:47:40.045Z,24.23
2019-04-06T02:50:07.538Z,23.63
2019-04-06T02:52:34.906Z,26.83
2019-04-06T02:55:02.171Z,24.30
2019-04-06T02:57:29.435Z,27.97
2019-04-06T02:59:56.686Z,25.20
2019-04-06T03:02:24.034Z,24.10
2019-04-06T03:04:51.283Z,21.80
2019-04-06T03:07:18.815Z,20.80
2019-04-06T03:09:46.079Z,22.40
2019-04-06T03:12:13.335Z,23.70
2019-04-06T03:14:43.831Z,20.80
2019-04-06T03:17:09.565Z,22.10
2019-04-06T03:19:37.193Z,22.00
2019-04-06T03:22:04.834Z,22.57
2019-04-06T03:24:32.417Z,20.70
2019-04-06T03:27:02.520Z,25.57
2019-04-06T03:29:28.659Z,25.30
2019-04-06T03:31:55.930Z,24.60
2019-04-06T03:34:23.300Z,24.87
2019-04-06T03:36:50.634Z,23.37
2019-04-06T03:39:18.150Z,23.37
2019-04-06T03:41:45.405Z,18.47
2019-04-06T03:44:12.668Z,23.10
2019-04-06T03:46:40.255Z,22.33
2019-04-06T03:49:07.539Z,25.17
2019-04-06T03:51:34.787Z,19.43
2019-04-06T03:54:02.072Z,18.83
2019-04-06T03:56:29.656Z,22.10
2019-04-06T03:58:56.930Z,22.47
2019-04-06T04:01:24.337Z,19.90
2019-04-06T04:03:51.712Z,21.00
2019-04-06T04:06:19.162Z,21.90
2019-04-06T04:08:46.511Z,20.07
2019-04-06T04:11:13.975Z,23.70
2019-04-06T04:13:41.312Z,26.83
2019-04-06T04:16:08.894Z,22.50
2019-04-06T04:18:36.168Z,25.50
2019-04-06T04:21:03.486Z,24.20
2019-04-06T04:23:30.841Z,22.40
2019-04-06T04:25:58.094Z,21.73
2019-04-06T04:28:25.625Z,21.20
2019-04-06T04:30:53.118Z,21.33
2019-04-06T04:33:20.414Z,19.30
2019-04-06T04:35:47.779Z,18.67
2019-04-06T04:38:15.114Z,19.60
2019-04-06T04:40:42.369Z,21.80
2019-04-06T04:43:09.639Z,17.80
2019-04-06T04:45:36.881Z,19.70
2019-04-06T04:48:04.157Z,20.80
2019-04-06T04:50:31.416Z,21.40
2019-04-06T04:52:58.754Z,20.73
2019-04-06T04:55:26.002Z,23.87
2019-04-06T04:57:53.264Z,22.03
2019-04-06T05:00:20.606Z,21.63
2019-04-06T05:02:47.936Z,24.20
2019-04-06T05:05:15.201Z,22.47
2019-04-06T05:07:42.612Z,22.57
2019-04-06T05:10:10.101Z,23.53
2019-04-06T05:12:37.402Z,20.27
2019-04-06T05:15:05.837Z,21.53
2019-04-06T05:17:33.363Z,21.30
2019-04-06T05:20:00.652Z,22.37
2019-04-06T05:22:27.993Z,22.97
2019-04-06T05:24:55.242Z,21.47
2019-04-06T05:27:22.593Z,19.80
2019-04-06T05:29:49.848Z,23.00
2019-04-06T05:32:17.223Z,22.30
2019-04-06T05:34:44.554Z,22.63
2019-04-06T05:37:11.797Z,24.80
2019-04-06T05:39:39.149Z,20.80
2019-04-06T05:42:06.576Z,19.23
2019-04-06T05:44:33.846Z,22.30
2019-04-06T05:47:01.101Z,23.30
2019-04-06T05:49:28.631Z,22.97
2019-04-06T05:51:55.985Z,23.93
2019-04-06T05:54:23.402Z,22.60
2019-04-06T05:56:50.660Z,20.70
2019-04-06T05:59:17.929Z,20.60
2019-04-06T06:01:45.172Z,22.90
2019-04-06T06:04:12.454Z,22.07
2019-04-06T06:06:39.786Z,21.40
2019-04-06T06:09:07.615Z,24.33
2019-04-06T06:11:35.326Z,23.17
2019-04-06T06:14:03.070Z,22.17
2019-04-06T06:16:30.583Z,24.37
2019-04-06T06:18:58.094Z,28.37
2019-04-06T06:21:25.366Z,35.30
2019-04-06T06:23:52.623Z,35.83
2019-04-06T06:26:19.890Z,38.00
2019-04-06T06:28:47.158Z,36.73
2019-04-06T06:31:15.025Z,35.50
2019-04-06T06:33:42.286Z,40.50
2019-04-06T06:36:09.637Z,37.47
2019-04-06T06:38:38.997Z,37.13
2019-04-06T06:41:05.881Z,33.53
2019-04-06T06:43:33.211Z,38.03
2019-04-06T06:46:00.514Z,39.80
2019-04-06T06:48:27.950Z,36.53
2019-04-06T06:50:55.396Z,37.57
2019-04-06T06:53:22.646Z,36.70
2019-04-06T06:55:49.926Z,38.50
2019-04-06T06:58:25.344Z,43.10
2019-04-06T07:00:46.335Z,39.90
2019-04-06T07:03:13.756Z,39.40
2019-04-06T07:05:41.076Z,38.60
2019-04-06T07:08:09.136Z,38.63
2019-04-06T07:10:36.549Z,38.17
2019-04-06T07:13:03.928Z,39.03
2019-04-06T07:15:31.180Z,40.07
2019-04-06T07:17:58.446Z,36.63
2019-04-06T07:20:25.957Z,42.33
2019-04-06T07:22:53.289Z,39.10
2019-04-06T07:25:20.549Z,38.13
2019-04-06T07:27:47.947Z,36.20
2019-04-06T07:30:15.328Z,35.77
2019-04-06T07:32:42.766Z,39.60
2019-04-06T07:35:10.289Z,38.27
2019-04-06T07:37:37.822Z,34.13
2019-04-06T07:40:08.290Z,32.23
2019-04-06T07:42:35.563Z,36.17
2019-04-06T07:45:04.381Z,32.57
2019-04-06T07:47:31.710Z,32.30
2019-04-06T07:49:59.046Z,39.10
2019-04-06T07:52:26.523Z,37.20
2019-04-06T07:54:53.841Z,32.13
2019-04-06T07:57:21.141Z,32.83
2019-04-06T07:59:48.446Z,30.60
2019-04-06T08:02:15.709Z,36.90
2019-04-06T08:04:42.981Z,32.43
2019-04-06T08:07:10.239Z,31.30
2019-04-06T08:09:37.759Z,30.83
2019-04-06T08:12:05.073Z,31.60
2019-04-06T08:14:32.445Z,31.60
2019-04-06T08:16:59.805Z,28.47
2019-04-06T08:19:27.154Z,32.67
2019-04-06T08:21:54.441Z,33.30
2019-04-06T08:24:21.754Z,28.93
2019-04-06T08:26:49.016Z,31.90
2019-04-06T08:29:16.278Z,27.40
2019-04-06T08:31:43.783Z,29.80
2019-04-06T08:34:13.422Z,26.27
2019-04-06T08:36:41.388Z,25.23
2019-04-06T08:39:09.228Z,25.40
2019-04-06T08:41:36.571Z,24.80
2019-04-06T08:44:04.434Z,25.63
2019-04-06T08:46:31.688Z,26.50
2019-04-06T08:48:58.998Z,26.60
2019-04-06T08:51:26.542Z,25.63
2019-04-06T08:53:53.800Z,25.40
2019-04-06T08:56:21.058Z,26.70
2019-04-06T08:58:48.321Z,23.20
2019-04-06T09:01:15.573Z,24.90
2019-04-06T09:03:42.857Z,25.53
2019-04-06T09:06:10.101Z,24.57
2019-04-06T09:08:37.361Z,25.77
2019-04-06T09:11:04.862Z,23.50
2019-04-06T09:13:32.155Z,22.17
2019-04-06T09:15:59.726Z,24.43
2019-04-06T09:18:28.705Z,23.63
2019-04-06T09:20:56.009Z,25.17
2019-04-06T09:23:23.256Z,23.53
2019-04-06T09:25:50.605Z,23.30
2019-04-06T09:28:17.989Z,23.17
2019-04-06T09:30:45.265Z,23.93
2019-04-06T09:33:12.517Z,24.70
2019-04-06T09:35:39.795Z,24.33
2019-04-06T09:38:08.838Z,23.70
2019-04-06T09:40:36.382Z,24.70
2019-04-06T09:43:03.654Z,25.57
2019-04-06T09:45:32.571Z,24.63
2019-04-06T09:48:16.624Z,26.50
2019-04-06T09:50:54.034Z,23.10
2019-04-06T09:53:22.938Z,27.27
2019-04-06T09:56:06.766Z,27.90
2019-04-06T09:58:35.909Z,27.00
2019-04-06T10:01:17.027Z,25.90
2019-04-06T10:03:45.917Z,27.33
2019-04-06T10:06:17.771Z,26.70
2019-04-06T10:08:55.934Z,25.80
2019-04-06T10:11:25.114Z,41.20
2019-04-06T10:13:57.122Z,26.80
2019-04-06T10:16:31.746Z,26.63
2019-04-06T10:19:00.644Z,26.30
2019-04-06T10:21:33.138Z,26.57
2019-04-06T10:24:02.180Z,26.80
2019-04-06T10:26:34.061Z,26.80
2019-04-06T10:29:19.140Z,25.60
2019-04-06T10:31:56.670Z,26.10
2019-04-06T10:34:31.810Z,27.80
2019-04-06T10:37:06.775Z,28.20
2019-04-06T10:39:38.754Z,28.20
2019-04-06T10:42:07.985Z,28.90
2019-04-06T10:44:52.751Z,28.07
2019-04-06T10:47:30.600Z,27.73
2019-04-06T10:49:59.514Z,28.33
2019-04-06T10:52:31.408Z,29.53
2019-04-06T10:55:02.820Z,29.83
2019-04-06T10:57:43.829Z,30.10
2019-04-06T11:00:30.640Z,28.83
2019-04-06T11:03:15.741Z,30.37
2019-04-06T11:05:45.007Z,28.73
2019-04-06T11:08:19.952Z,28.40
2019-04-06T11:10:49.104Z,29.20
2019-04-06T11:13:18.010Z,28.10
2019-04-06T11:15:46.897Z,29.57
2019-04-06T11:18:32.342Z,28.80
2019-04-06T11:21:10.019Z,28.53
2019-04-06T11:23:42.138Z,29.13
2019-04-06T11:26:19.850Z,30.43
2019-04-06T11:29:00.814Z,28.97
2019-04-06T11:31:45.096Z,29.27
2019-04-06T11:34:14.006Z,29.03
2019-04-06T11:36:57.780Z,29.30
2019-04-06T11:39:26.680Z,30.77
2019-04-06T11:42:07.394Z,28.73
2019-04-06T11:44:36.295Z,26.80
2019-04-06T11:47:14.552Z,28.20
2019-04-06T11:50:01.318Z,28.47
2019-04-06T11:52:30.282Z,27.10
2019-04-06T11:55:10.939Z,28.87
2019-04-06T11:57:39.845Z,30.33
2019-04-06T12:00:26.964Z,27.87
2019-04-06T12:02:54.366Z,28.33
2019-04-06T12:05:39.283Z,27.23
2019-04-06T12:08:24.527Z,26.77
2019-04-06T12:10:53.419Z,29.30
2019-04-06T12:13:25.642Z,27.90
2019-04-06T12:16:06.367Z,28.70
2019-04-06T12:18:35.274Z,27.60
2019-04-06T12:21:13.246Z,28.60
2019-04-06T12:23:58.371Z,28.57
2019-04-06T12:26:27.514Z,26.30
2019-04-06T12:29:08.525Z,29.00
2019-04-06T12:31:43.326Z,27.87
2019-04-06T12:34:12.469Z,27.13
2019-04-06T12:36:56.465Z,27.93
2019-04-06T12:39:34.432Z,27.47
2019-04-06T12:42:09.585Z,26.97
2019-04-06T12:44:56.508Z,29.13
2019-04-06T12:47:43.210Z,24.57
2019-04-06T12:50:30.092Z,26.07
2019-04-06T12:53:08.233Z,26.30
2019-04-06T12:55:37.492Z,23.83
2019-04-06T12:58:24.781Z,24.30
2019-04-06T13:00:54.067Z,23.80
2019-04-06T13:03:29.349Z,25.73
2019-04-06T13:06:14.748Z,25.50
2019-04-06T13:08:43.627Z,25.73
2019-04-06T13:11:19.893Z,27.40
2019-04-06T13:13:54.941Z,25.80
2019-04-06T13:16:26.101Z,27.23
2019-04-06T13:19:06.778Z,17.87
2019-04-06T13:21:51.797Z,30.40
2019-04-06T13:24:29.415Z,27.17
2019-04-06T13:27:00.998Z,22.73
2019-04-06T13:29:46.537Z,25.30
2019-04-06T13:32:15.698Z,24.27
2019-04-06T13:34:56.865Z,25.00
2019-04-06T13:37:29.074Z,22.40
2019-04-06T13:40:15.120Z,25.47
2019-04-06T13:42:56.201Z,23.53
2019-04-06T13:45:34.281Z,22.00
2019-04-06T13:48:09.158Z,22.80
2019-04-06T13:50:38.304Z,23.90
2019-04-06T13:53:07.311Z,20.60
2019-04-06T13:55:42.411Z,21.30
2019-04-06T13:58:16.747Z,23.40
2019-04-06T14:00:54.669Z,21.57
2019-04-06T14:03:40.244Z,21.43
2019-04-06T14:06:16.036Z,20.10
2019-04-06T14:08:57.694Z,20.07
2019-04-06T14:11:43.192Z,20.37
2019-04-06T14:14:29.591Z,19.87
2019-04-06T14:16:59.461Z,19.30
2019-04-06T14:19:44.937Z,20.70
2019-04-06T14:22:29.026Z,19.47
2019-04-06T14:25:00.726Z,20.57
2019-04-06T14:27:32.642Z,20.33
2019-04-06T14:30:01.846Z,25.90
2019-04-06T14:32:33.529Z,22.27
2019-04-06T14:35:08.490Z,21.37
2019-04-06T14:37:53.601Z,21.97
2019-04-06T14:40:34.567Z,20.23
2019-04-06T14:43:15.545Z,22.47
2019-04-06T14:45:47.604Z,33.10
2019-04-06T14:48:25.810Z,24.10
2019-04-06T14:50:55.040Z,17.23
2019-04-06T14:53:32.685Z,20.63
2019-04-06T14:56:02.578Z,18.33
2019-04-06T14:58:57.149Z,16.67
2019-04-06T15:01:45.563Z,21.20
2019-04-06T15:04:11.656Z,20.00
2019-04-06T15:06:40.545Z,18.93
2019-04-06T15:09:12.857Z,17.37
2019-04-06T15:11:47.684Z,17.47
2019-04-06T15:14:32.953Z,18.30
2019-04-06T15:17:18.230Z,20.07
2019-04-06T15:19:50.524Z,19.57
2019-04-06T15:22:28.683Z,17.23
2019-04-06T15:25:03.509Z,19.30
2019-04-06T15:27:38.364Z,16.97
2019-04-06T15:30:08.821Z,19.70
2019-04-06T15:32:49.337Z,18.17
2019-04-06T15:35:27.229Z,18.20
2019-04-06T15:37:58.973Z,18.43
2019-04-06T15:40:27.920Z,18.00
2019-04-06T15:43:14.714Z,18.60
2019-04-06T15:45:52.593Z,17.87
2019-04-06T15:48:36.567Z,17.70
2019-04-06T15:51:09.593Z,18.30
2019-04-06T15:53:41.710Z,20.10
2019-04-06T15:56:26.793Z,19.90
2019-04-06T15:59:11.296Z,19.73
2019-04-06T16:01:59.130Z,18.90
2019-04-06T16:04:29.156Z,19.87
2019-04-06T16:07:04.138Z,17.77
2019-04-06T16:09:42.416Z,17.90
2019-04-06T16:12:17.064Z,18.30
2019-04-06T16:14:45.971Z,19.20
2019-04-06T16:17:17.805Z,17.47
2019-04-06T16:19:56.371Z,17.60
2019-04-06T16:22:28.503Z,17.90
2019-04-06T16:24:57.692Z,18.77
2019-04-06T16:27:28.022Z,18.00
2019-04-06T16:30:05.827Z,18.70
2019-04-06T16:32:40.673Z,17.33
2019-04-06T16:35:26.147Z,17.50
2019-04-06T16:38:11.437Z,16.83
2019-04-06T16:40:49.676Z,18.60
2019-04-06T16:43:27.500Z,15.20
2019-04-06T16:46:11.860Z,18.43
2019-04-06T16:48:57.013Z,19.33
2019-04-06T16:51:26.266Z,18.13
2019-04-06T16:54:09.925Z,15.23
2019-04-06T16:56:39.205Z,15.73
2019-04-06T16:59:08.098Z,15.03
2019-04-06T17:01:53.441Z,16.20
2019-04-06T17:04:22.369Z,15.47
2019-04-06T17:07:00.807Z,19.40
2019-04-06T17:09:35.914Z,16.60
2019-04-06T17:12:05.001Z,17.27
2019-04-06T17:14:50.266Z,15.53
2019-04-06T17:17:22.081Z,14.93
2019-04-06T17:20:06.027Z,14.87
2019-04-06T17:22:51.047Z,15.70
2019-04-06T17:25:19.936Z,15.40
2019-04-06T17:28:04.306Z,15.33
2019-04-06T17:30:51.143Z,14.47
2019-04-06T17:33:37.997Z,14.60
2019-04-06T17:36:06.890Z,15.07
2019-04-06T17:38:52.236Z,15.07
2019-04-06T17:41:36.459Z,14.50
2019-04-06T17:44:14.261Z,15.73
2019-04-06T17:46:43.583Z,15.27
2019-04-06T17:49:12.804Z,16.40
2019-04-06T17:51:42.011Z,14.43
2019-04-06T17:54:27.153Z,13.33
2019-04-06T17:57:11.450Z,13.00
2019-04-06T17:59:49.605Z,13.23
2019-04-06T18:02:45.974Z,13.40
2019-04-06T18:05:09.550Z,13.77
2019-04-06T18:07:47.721Z,14.57
2019-04-06T18:10:22.977Z,16.33
2019-04-06T18:12:52.025Z,16.13
2019-04-06T18:15:19.406Z,16.13
2019-04-06T18:17:46.657Z,15.35
2019-04-06T18:20:14.260Z,16.37
2019-04-06T18:22:41.770Z,14.20
2019-04-06T18:25:09.523Z,14.80
2019-04-06T18:27:37.230Z,14.10
2019-04-06T18:30:09.152Z,14.03
2019-04-06T18:32:40.611Z,15.03
2019-04-06T18:35:09.785Z,14.33
2019-04-06T18:37:38.983Z,14.43
2019-04-06T18:40:08.533Z,16.33
2019-04-06T18:42:36.174Z,16.63
2019-04-06T18:45:04.601Z,15.70
2019-04-06T18:47:32.403Z,15.50
2019-04-06T18:49:59.670Z,15.90
2019-04-06T18:52:27.243Z,17.67
2019-04-06T18:54:54.600Z,15.77
2019-04-06T18:57:22.141Z,17.03
2019-04-06T18:59:49.417Z,18.00
2019-04-06T19:02:16.670Z,15.97
2019-04-06T19:04:44.052Z,15.17
2019-04-06T19:07:11.670Z,17.17
2019-04-06T19:09:39.647Z,18.97
2019-04-06T19:12:07.789Z,18.50
2019-04-06T19:14:35.245Z,17.67
2019-04-06T19:17:02.551Z,19.80
2019-04-06T19:19:29.829Z,17.50
2019-04-06T19:21:57.237Z,18.63
2019-04-06T19:24:24.888Z,17.37
2019-04-06T19:26:52.165Z,20.43
2019-04-06T19:29:19.690Z,16.30
2019-04-06T19:31:46.957Z,19.00
2019-04-06T19:34:14.668Z,17.77
2019-04-06T19:36:42.465Z,19.47
2019-04-06T19:39:11.262Z,18.27
2019-04-06T19:41:38.796Z,19.57
2019-04-06T19:44:06.056Z,21.37
2019-04-06T19:46:33.317Z,19.77
2019-04-06T19:49:01.166Z,19.97
2019-04-06T19:51:28.523Z,19.13
2019-04-06T19:53:55.952Z,19.90
2019-04-06T19:56:23.310Z,20.20
2019-04-06T19:58:50.557Z,20.40
2019-04-06T20:01:17.830Z,19.93
2019-04-06T20:03:45.143Z,18.80
2019-04-06T20:06:12.434Z,18.40
2019-04-06T20:08:39.686Z,18.23
2019-04-06T20:11:06.967Z,18.93
2019-04-06T20:13:34.478Z,20.10
2019-04-06T20:16:02.107Z,18.40
2019-04-06T20:18:29.391Z,20.73
2019-04-06T20:20:56.712Z,19.13
2019-04-06T20:23:24.361Z,19.50
2019-04-06T20:25:52.025Z,19.70
2019-04-06T20:28:19.617Z,18.93
2019-04-06T20:30:46.889Z,19.63
2019-04-06T20:33:14.166Z,18.33
2019-04-06T20:35:41.422Z,20.33
2019-04-06T20:38:08.849Z,19.90
2019-04-06T20:40:36.846Z,17.90
2019-04-06T20:43:04.135Z,18.73
2019-04-06T20:45:31.381Z,19.17
2019-04-06T20:47:58.659Z,19.03
2019-04-06T20:50:25.915Z,18.20
2019-04-06T20:52:53.408Z,19.60
2019-04-06T20:55:20.719Z,16.97
2019-04-06T20:57:48.344Z,17.83
2019-04-06T21:00:15.683Z,20.50
2019-04-06T21:02:43.002Z,17.70
2019-04-06T21:05:10.350Z,20.43
2019-04-06T21:07:38.058Z,19.23
2019-04-06T21:10:06.823Z,20.60
2019-04-06T21:12:34.235Z,20.53
2019-04-06T21:15:02.240Z,20.07
2019-04-06T21:17:29.661Z,18.47
2019-04-06T21:19:57.214Z,19.40
2019-04-06T21:22:24.897Z,19.93
2019-04-06T21:24:53.166Z,19.13
2019-04-06T21:27:20.575Z,18.53
2019-04-06T21:29:47.942Z,18.37
2019-04-06T21:32:15.593Z,20.70
2019-04-06T21:34:43.264Z,20.03
2019-04-06T21:37:10.518Z,17.30
2019-04-06T21:39:38.082Z,19.33
2019-04-06T21:42:05.697Z,22.43
2019-04-06T21:44:33.320Z,20.57
2019-04-06T21:47:00.606Z,18.17
2019-04-06T21:49:27.964Z,18.10
2019-04-06T21:51:55.554Z,19.43
2019-04-06T21:54:22.932Z,18.33
2019-04-06T21:56:50.256Z,18.70
2019-04-06T21:59:18.116Z,18.43
2019-04-06T22:01:45.451Z,19.20
2019-04-06T22:04:23.081Z,18.53
2019-04-06T22:06:41.725Z,18.53
2019-04-06T22:09:11.128Z,20.20
2019-04-06T22:11:38.779Z,20.67
2019-04-06T22:14:06.945Z,18.93
2019-04-06T22:16:34.650Z,19.90
2019-04-06T22:19:01.957Z,19.73
2019-04-06T22:21:29.270Z,20.57
2019-04-06T22:23:56.545Z,18.60
2019-04-06T22:26:23.862Z,20.77
2019-04-06T22:28:51.134Z,20.30
2019-04-06T22:31:18.382Z,21.83
2019-04-06T22:33:45.950Z,23.27
2019-04-06T22:36:13.305Z,20.00
2019-04-06T22:38:41.561Z,20.00
2019-04-06T22:41:09.232Z,21.73
2019-04-06T22:43:36.570Z,19.60
2019-04-06T22:46:04.318Z,18.63
2019-04-06T22:48:31.670Z,18.60
2019-04-06T22:50:59.166Z,20.40
2019-04-06T22:53:26.593Z,19.67
2019-04-06T22:55:54.004Z,19.13
2019-04-06T22:58:21.932Z,20.47
2019-04-06T23:00:54.486Z,19.40
2019-04-06T23:03:31.966Z,19.20
2019-04-06T23:06:01.259Z,18.80
2019-04-06T23:08:29.060Z,19.63
2019-04-06T23:10:56.829Z,19.57
2019-04-06T23:13:24.180Z,21.10
2019-04-06T23:15:51.460Z,21.77
2019-04-06T23:18:18.765Z,20.90
2019-04-06T23:20:46.302Z,18.87
2019-04-06T23:23:13.554Z,20.07
2019-04-06T23:25:41.349Z,18.60
2019-04-06T23:28:09.319Z,16.80
2019-04-06T23:30:36.586Z,22.57
2019-04-06T23:33:03.909Z,21.43
2019-04-06T23:35:31.289Z,20.00
2019-04-06T23:37:58.621Z,19.90
2019-04-06T23:40:25.956Z,20.90
2019-04-06T23:42:53.728Z,21.50
2019-04-06T23:45:21.057Z,22.30
2019-04-06T23:47:48.407Z,21.67
2019-04-06T23:50:15.655Z,19.90
2019-04-06T23:52:43.417Z,19.50
2019-04-06T23:55:10.827Z,19.40
2019-04-06T23:57:38.407Z,19.77
